Time;durP1;ratioP1;P1;durP2;ratioP2;P2;SDS_P1;SDS_P2;PMS_P1;PMS_P2;Temp;Humidity;BMP_temperature;BMP_pressure;BME280_temperature;BME280_humidity;BME280_pressure;Samples;Min_cycle;Max_cycle;Signal;HPM_P1;HPM_P2
2024/01/04 00:07:19;;;;;;;8.80;3.10;;;;;;;6.45;97.83;96416.86;435307;1253;107376;-43
2024/01/04 00:17:27;;;;;;;8.00;3.40;;;;;;;6.43;97.93;96411.45;435354;1253;99228;-40
2024/01/04 00:27:34;;;;;;;7.90;3.10;;;;;;;6.41;97.98;96409.49;435465;1253;111351;-39
2024/01/04 00:37:39;;;;;;;6.30;3.80;;;;;;;6.33;97.85;96401.47;435550;1263;108238;-40
2024/01/04 00:47:45;;;;;;;8.00;3.70;;;;;;;6.30;97.95;96397.41;435491;1253;97988;-40
2024/01/04 00:57:52;;;;;;;10.60;4.00;;;;;;;6.33;98.27;96394.44;435246;1253;489444;-38
2024/01/04 01:18:06;;;;;;;6.40;2.40;;;;;;;6.40;98.14;96393.42;435635;1253;113868;-40
2024/01/04 01:28:12;;;;;;;8.80;3.60;;;;;;;6.52;98.35;96389.52;435274;1250;110632;-40
2024/01/04 01:38:22;;;;;;;4.40;2.30;;;;;;;6.62;98.16;96389.23;435521;1250;99217;-40
2024/01/04 01:48:29;;;;;;;7.00;3.70;;;;;;;6.65;98.22;96389.67;435420;1253;107823;-39
2024/01/04 01:58:38;;;;;;;5.40;2.50;;;;;;;6.58;98.09;96382.13;435531;1251;98005;-39
2024/01/04 02:18:52;;;;;;;3.90;1.70;;;;;;;6.54;97.93;96378.34;435335;1254;108212;-40
2024/01/04 02:39:05;;;;;;;2.50;1.70;;;;;;;6.67;97.90;96363.99;436237;1249;108597;-37
2024/01/04 02:49:13;;;;;;;4.70;2.10;;;;;;;6.71;97.96;96362.48;435414;1253;98354;-38
2024/01/04 02:59:20;;;;;;;7.40;2.70;;;;;;;6.63;97.96;96360.05;435443;1253;110550;-40
2024/01/04 03:09:28;;;;;;;1.70;1.30;;;;;;;6.55;97.72;96355.77;435338;1253;108445;-39
2024/01/04 03:19:34;;;;;;;2.20;1.50;;;;;;;6.50;97.81;96352.34;435453;1253;99227;-39
2024/01/04 03:39:44;;;;;;;7.90;3.50;;;;;;;6.44;98.27;96352.13;435404;1253;99227;-40
2024/01/04 03:49:51;;;;;;;8.00;4.60;;;;;;;6.43;98.41;96345.61;435298;1251;112312;-41
2024/01/04 03:59:59;;;;;;;2.50;1.70;;;;;;;6.42;98.65;96342.14;435329;1254;109560;-40
2024/01/04 04:10:09;;;;;;;5.20;2.30;;;;;;;6.40;98.73;96343.25;435579;1258;99279;-40
2024/01/04 04:20:16;;;;;;;2.70;1.90;;;;;;;6.38;98.72;96345.22;435360;1253;107156;-41
2024/01/04 04:30:23;;;;;;;3.50;2.10;;;;;;;6.38;99.01;96339.91;435302;1253;98855;-39
2024/01/04 04:40:28;;;;;;;3.20;2.40;;;;;;;6.37;99.14;96337.19;435327;1263;110878;-40
2024/01/04 04:50:35;;;;;;;3.60;2.70;;;;;;;6.37;99.27;96342.95;435498;1249;109360;-39
2024/01/04 05:00:42;;;;;;;3.70;3.40;;;;;;;6.39;99.38;96345.27;435290;1253;98049;-41
2024/01/04 05:10:50;;;;;;;3.70;1.30;;;;;;;6.40;99.67;96353.54;435435;1250;109638;-40
2024/01/04 05:31:04;;;;;;;5.80;3.80;;;;;;;6.46;99.88;96367.14;435488;1251;111872;-40
2024/01/04 05:41:12;;;;;;;3.10;1.40;;;;;;;6.44;100.00;96376.75;435227;1250;107587;-40
2024/01/04 05:51:19;;;;;;;5.80;2.60;;;;;;;6.40;100.00;96385.70;435307;1264;99218;-40
2024/01/04 06:01:25;;;;;;;5.20;3.40;;;;;;;6.36;100.00;96398.38;435377;1254;108691;-40
2024/01/04 06:11:33;;;;;;;3.70;2.20;;;;;;;6.38;100.00;96408.23;435395;1250;97996;-40
2024/01/04 06:21:40;;;;;;;5.20;3.30;;;;;;;6.31;100.00;96421.62;435277;1256;110566;-40
2024/01/04 06:31:47;;;;;;;7.90;5.40;;;;;;;6.27;100.00;96430.53;435372;1250;107153;-40
2024/01/04 06:52:00;;;;;;;6.60;4.40;;;;;;;6.30;100.00;96442.98;435397;1251;107763;-42
2024/01/04 07:02:06;;;;;;;3.40;1.90;;;;;;;6.31;100.00;96447.87;435128;1264;99253;-39
2024/01/04 07:12:10;;;;;;;2.70;2.00;;;;;;;6.32;100.00;96454.44;435446;1263;112709;-39
2024/01/04 07:22:19;;;;;;;6.80;5.40;;;;;;;6.33;100.00;96456.06;435310;1251;107103;-39
2024/01/04 07:32:27;;;;;;;6.40;2.70;;;;;;;6.40;100.00;96453.80;435530;1253;99326;-40
2024/01/04 07:42:34;;;;;;;3.40;1.90;;;;;;;6.41;100.00;96462.32;435325;1253;108775;-39
2024/01/04 08:02:48;;;;;;;3.60;1.40;;;;;;;6.49;100.00;96469.84;435369;1250;112160;-39
2024/01/04 08:12:54;;;;;;;3.00;1.40;;;;;;;6.50;100.00;96474.00;435303;1256;108360;-40
2024/01/04 08:23:02;;;;;;;5.50;5.00;;;;;;;6.55;100.00;96476.28;435343;1254;99240;-39
2024/01/04 08:33:08;;;;;;;4.20;2.40;;;;;;;6.58;100.00;96484.95;435485;1253;107443;-39
2024/01/04 08:43:16;;;;;;;1.20;1.10;;;;;;;6.54;100.00;96490.34;435283;1254;97984;-39
2024/01/04 08:53:23;;;;;;;6.20;3.40;;;;;;;6.67;100.00;96490.25;435250;1264;112181;-39
2024/01/04 09:03:30;;;;;;;7.50;4.00;;;;;;;6.89;100.00;96492.23;435284;1250;108340;-39
2024/01/04 09:13:37;;;;;;;5.90;4.50;;;;;;;6.97;100.00;96504.54;435427;1263;99294;-39
2024/01/04 09:23:45;;;;;;;8.50;6.80;;;;;;;6.99;100.00;96517.69;435325;1251;107944;-39
2024/01/04 09:33:54;;;;;;;7.10;4.10;;;;;;;7.03;100.00;96525.84;435440;1254;99237;-40
2024/01/04 09:44:03;;;;;;;3.20;2.00;;;;;;;7.23;100.00;96526.90;435382;1255;110881;-38
2024/01/04 09:54:10;;;;;;;;;;;;;;;7.23;100.00;96526.02;435333;1254;108959;-39
2024/01/04 10:04:18;;;;;;;7.10;3.50;;;;;;;7.37;100.00;96526.46;435477;1253;98010;-39
2024/01/04 10:14:25;;;;;;;4.10;2.60;;;;;;;7.24;100.00;96536.53;435261;1253;108242;-38
2024/01/04 10:44:53;;;;;;;3.90;2.00;;;;;;;7.18;100.00;96533.77;435229;1251;107763;-39
2024/01/04 10:55:03;;;;;;;2.90;2.60;;;;;;;7.13;100.00;96536.81;435299;1254;98862;-40
2024/01/04 11:05:12;;;;;;;6.00;1.20;;;;;;;7.08;100.00;96544.56;435328;1252;107769;-38
2024/01/04 11:15:18;;;;;;;1.30;1.00;;;;;;;7.02;100.00;96546.59;435259;1251;98361;-39
2024/01/04 11:25:25;;;;;;;3.60;1.30;;;;;;;6.99;100.00;96549.80;435450;1254;111340;-39
2024/01/04 11:35:36;;;;;;;1.60;1.10;;;;;;;6.90;100.00;96544.30;435345;1251;108337;-40
2024/01/04 11:45:44;;;;;;;2.10;1.30;;;;;;;6.81;100.00;96549.40;435411;1254;99246;-39
2024/01/04 11:55:51;;;;;;;2.00;1.30;;;;;;;6.79;100.00;96552.96;435402;1253;106914;-38
2024/01/04 12:05:56;;;;;;;1.80;1.30;;;;;;;6.69;100.00;96564.53;435077;1250;99215;-40
2024/01/04 12:26:11;;;;;;;7.70;2.80;;;;;;;6.53;100.00;96565.38;435172;1251;107024;-39
2024/01/04 12:36:19;;;;;;;2.60;1.20;;;;;;;6.68;100.00;96555.49;435403;1254;99207;-39
2024/01/04 12:46:28;;;;;;;9.20;3.30;;;;;;;6.77;100.00;96569.09;435271;1254;107865;-39
2024/01/04 12:56:35;;;;;;;12.50;11.20;;;;;;;6.78;100.00;96586.27;434857;1251;504546;-39
2024/01/04 13:06:41;;;;;;;7.60;4.20;;;;;;;6.92;100.00;96577.15;435314;1249;111777;-39
2024/01/04 13:26:56;;;;;;;9.40;5.20;;;;;;;6.92;100.00;96588.08;435287;1250;98053;-39
2024/01/04 13:37:03;;;;;;;5.30;2.90;;;;;;;6.82;99.61;96600.05;435315;1254;108967;-39
2024/01/04 13:47:11;;;;;;;7.10;5.20;;;;;;;6.74;99.62;96597.70;435341;1251;99255;-38
2024/01/04 13:57:18;;;;;;;6.10;4.70;;;;;;;6.67;99.35;96599.82;435397;1250;111993;-39
2024/01/04 14:07:25;;;;;;;7.40;5.90;;;;;;;6.58;99.70;96595.02;435482;1254;109340;-39
2024/01/04 14:17:32;;;;;;;12.50;7.20;;;;;;;6.41;99.52;96593.30;435240;1250;99242;-38
2024/01/04 14:27:40;;;;;;;12.70;8.30;;;;;;;6.32;99.34;96588.17;435383;1251;108523;-38
2024/01/04 14:37:47;;;;;;;18.60;9.30;;;;;;;6.30;99.76;96583.02;435414;1250;98817;-38
2024/01/04 14:47:55;;;;;;;10.70;8.00;;;;;;;6.36;99.83;96590.05;435316;1250;111161;-38
2024/01/04 15:08:08;;;;;;;21.30;12.10;;;;;;;6.33;99.79;96645.69;435476;1250;98515;-39
2024/01/04 15:18:39;;;;;;;18.80;8.90;;;;;;;6.26;99.51;96648.58;435202;1250;108547;-40
2024/01/04 15:28:45;;;;;;;34.20;14.50;;;;;;;6.22;99.59;96649.17;435361;1253;99218;-39
2024/01/04 15:38:52;;;;;;;9.90;4.60;;;;;;;6.16;99.75;96648.36;435292;1254;112012;-40
2024/01/04 15:48:59;;;;;;;7.30;3.90;;;;;;;6.01;99.79;96679.41;435313;1250;108702;-39
2024/01/04 16:19:21;;;;;;;9.60;7.00;;;;;;;5.58;99.89;96731.98;435399;1254;99218;-39
2024/01/04 16:49:39;;;;;;;11.30;3.10;;;;;;;4.82;99.21;96772.17;435343;1253;99349;-39
2024/01/04 17:09:51;;;;;;;3.00;1.60;;;;;;;4.13;97.63;96805.92;435371;1254;99237;-39
2024/01/04 17:30:03;;;;;;;12.80;5.40;;;;;;;3.92;97.65;96825.35;435319;1250;108396;-40
2024/01/04 17:40:12;;;;;;;12.30;5.70;;;;;;;3.87;97.49;96824.73;435431;1251;99237;-39
2024/01/04 17:50:19;;;;;;;1.20;1.10;;;;;;;3.78;96.93;96845.77;435358;1254;107541;-39
2024/01/04 18:10:29;;;;;;;2.10;1.40;;;;;;;3.71;96.85;96886.51;435274;1273;111693;-40
2024/01/04 18:20:35;;;;;;;7.00;3.90;;;;;;;3.60;96.90;96902.83;435311;1254;109364;-39
2024/01/04 18:30:41;;;;;;;2.00;1.20;;;;;;;3.41;96.83;96929.52;435303;1254;97968;-39
2024/01/04 18:40:48;;;;;;;2.30;1.30;;;;;;;3.19;96.42;96950.14;435075;1256;108141;-40
2024/01/04 18:50:57;;;;;;;1.70;1.10;;;;;;;3.09;96.28;96969.06;435284;1249;98003;-39
2024/01/04 19:01:04;;;;;;;5.00;2.90;;;;;;;2.99;96.39;96989.06;435511;1251;111241;-41
2024/01/04 19:11:11;;;;;;;2.50;1.40;;;;;;;2.94;96.04;97010.14;435281;1250;108763;-40
2024/01/04 19:21:18;;;;;;;2.40;1.20;;;;;;;2.93;95.35;97036.63;435408;1251;99258;-39
2024/01/04 19:31:24;;;;;;;3.00;1.60;;;;;;;2.92;95.16;97059.05;435349;1253;108234;-38
2024/01/04 19:41:32;;;;;;;2.90;2.00;;;;;;;2.88;95.05;97088.95;435409;1256;99278;-39
2024/01/04 19:51:39;;;;;;;3.40;1.50;;;;;;;2.79;94.94;97116.27;435402;1254;113950;-39
2024/01/04 20:01:48;;;;;;;1.70;1.10;;;;;;;2.57;95.22;97134.10;435352;1254;107456;-39
2024/01/04 20:22:02;;;;;;;4.70;2.30;;;;;;;2.38;95.50;97162.69;435458;1251;112009;-39
2024/01/04 20:32:09;;;;;;;2.60;1.50;;;;;;;2.40;95.51;97179.14;435336;1250;107634;-39
2024/01/04 20:52:22;;;;;;;3.00;1.40;;;;;;;2.27;95.49;97204.94;435479;1253;109290;-39
2024/01/04 21:02:29;;;;;;;1.70;1.30;;;;;;;2.05;95.25;97235.65;435409;1256;98805;-38
2024/01/04 21:12:36;;;;;;;24.40;9.00;;;;;;;1.91;95.33;97267.90;435269;1250;112160;-39
2024/01/04 21:22:44;;;;;;;3.70;2.40;;;;;;;1.82;95.45;97295.74;435303;1254;107231;-39
2024/01/04 21:32:51;;;;;;;5.10;2.50;;;;;;;1.67;95.20;97328.31;435299;1253;99324;-39
2024/01/04 21:42:56;;;;;;;3.90;2.30;;;;;;;1.46;94.60;97356.09;435429;1250;107860;-39
2024/01/04 21:53:03;;;;;;;4.50;3.10;;;;;;;1.18;94.25;97379.11;435387;1250;98253;-38
2024/01/04 22:03:10;;;;;;;3.60;3.10;;;;;;;1.02;93.48;97406.27;435537;1256;112055;-39
2024/01/04 22:13:18;;;;;;;4.70;3.00;;;;;;;0.89;92.05;97430.98;435293;1250;107861;-39
2024/01/04 22:33:31;;;;;;;4.70;2.90;;;;;;;0.67;90.95;97465.98;435275;1253;111515;-38
2024/01/04 22:43:39;;;;;;;4.90;3.20;;;;;;;0.62;90.70;97475.02;435307;1250;107400;-39
2024/01/04 22:53:46;;;;;;;5.60;3.30;;;;;;;0.57;90.36;97486.52;435377;1250;98264;-39
2024/01/04 23:13:57;;;;;;;7.10;4.90;;;;;;;0.63;90.32;97536.33;435628;1256;98493;-39
2024/01/04 23:24:02;;;;;;;5.60;4.10;;;;;;;0.51;89.92;97553.16;435392;1250;112215;-39
2024/01/04 23:34:10;;;;;;;7.00;3.60;;;;;;;0.45;89.76;97565.31;435213;1250;108217;-39
2024/01/04 23:44:14;;;;;;;6.00;4.20;;;;;;;0.38;89.95;97583.05;435258;1256;99109;-40
2024/01/04 23:54:21;;;;;;;3.50;3.20;;;;;;;0.33;89.80;97597.18;435303;1250;98841;-39
